createdAt,value
2019-04-21T00:00:14.509Z,96036.90
2019-04-21T00:02:44.105Z,96032.77
2019-04-21T00:05:43.147Z,96034.55
2019-04-21T00:08:10.763Z,96031.87
2019-04-21T00:10:37.468Z,96029.78
2019-04-21T00:13:00.395Z,96031.98
2019-04-21T00:15:24.616Z,96035.73
2019-04-21T00:17:53.910Z,96031.09
2019-04-21T00:20:30.939Z,96031.30
2019-04-21T00:23:10.633Z,96026.34
2019-04-21T00:25:34.844Z,96021.70
2019-04-21T00:28:17.343Z,96020.98
2019-04-21T00:30:44.324Z,96022.30
2019-04-21T00:33:05.347Z,96019.13
2019-04-21T00:35:29.356Z,96010.66
2019-04-21T00:38:22.745Z,96013.20
2019-04-21T00:40:53.851Z,96007.28
2019-04-21T00:43:18.127Z,96008.35
2019-04-21T00:45:42.222Z,96017.83
2019-04-21T00:48:25.770Z,96005.64
2019-04-21T00:51:11.046Z,96003.25
2019-04-21T00:53:37.063Z,96004.28
2019-04-21T00:56:08.954Z,96002.95
2019-04-21T00:58:39.312Z,96002.34
2019-04-21T01:01:04.475Z,96001.27
2019-04-21T01:03:40.146Z,96006.86
2019-04-21T01:06:11.426Z,96006.77
2019-04-21T01:08:39.972Z,96005.33
2019-04-21T01:11:02.198Z,96005.16
2019-04-21T01:13:49.766Z,96004.50
2019-04-21T01:16:17.432Z,96006.56
2019-04-21T01:18:42.628Z,95999.83
2019-04-21T01:20:52.605Z,95997.50
2019-04-21T01:23:23.305Z,95997.50
2019-04-21T01:26:06.334Z,95996.44
2019-04-21T01:28:41.299Z,95992.19
2019-04-21T01:31:15.369Z,95991.83
2019-04-21T01:33:50.733Z,95991.05
2019-04-21T01:36:14.523Z,95992.73
2019-04-21T01:39:05.512Z,95988.23
2019-04-21T01:43:53.447Z,95981.55
2019-04-21T01:46:19.447Z,95983.24
2019-04-21T01:48:49.454Z,95981.98
2019-04-21T01:51:23.504Z,95979.99
2019-04-21T01:54:18.504Z,95985.52
2019-04-21T01:57:01.978Z,95973.38
2019-04-21T01:59:30.603Z,95974.16
2019-04-21T02:02:05.149Z,95975.07
2019-04-21T02:04:41.741Z,95971.14
2019-04-21T02:07:13.081Z,95970.61
2019-04-21T02:10:03.467Z,95968.50
2019-04-21T02:12:13.509Z,95967.73
2019-04-21T02:14:50.527Z,95971.19
2019-04-21T02:17:14.722Z,95969.20
2019-04-21T02:19:39.613Z,95969.41
2019-04-21T02:22:10.862Z,95966.45
2019-04-21T02:24:49.692Z,95965.23
2019-04-21T02:27:21.811Z,95962.19
2019-04-21T02:29:51.858Z,95954.88
2019-04-21T02:35:24.867Z,95961.26
2019-04-21T02:40:08.434Z,95953.58
2019-04-21T02:42:37.903Z,95948.73
2019-04-21T02:50:09.924Z,95947.72
2019-04-21T02:52:45.019Z,95942.36
2019-04-21T02:57:41.380Z,95943.89
2019-04-21T03:00:13.626Z,95943.22
2019-04-21T03:02:58.649Z,95936.75
2019-04-21T03:05:58.297Z,95936.88
2019-04-21T03:10:57.191Z,95927.92
2019-04-21T03:13:21.892Z,95926.23
2019-04-21T03:18:29.085Z,95916.23
2019-04-21T03:21:03.127Z,95912.80
2019-04-21T03:25:56.167Z,95912.64
2019-04-21T03:28:30.147Z,95903.66
2019-04-21T03:36:37.244Z,95917.31
2019-04-21T03:38:37.686Z,95907.53
2019-04-21T03:40:57.750Z,95906.09
2019-04-21T03:45:58.270Z,95898.45
2019-04-21T03:51:04.839Z,95898.21
2019-04-21T03:53:31.998Z,95904.36
2019-04-21T03:56:02.748Z,95903.16
2019-04-21T03:58:47.025Z,95896.97
2019-04-21T04:01:16.720Z,95890.22
2019-04-21T04:07:25.049Z,95897.61
2019-04-21T04:12:05.242Z,95903.34
2019-04-21T04:19:45.429Z,95908.84
2019-04-21T04:22:31.464Z,95907.27
2019-04-21T04:24:49.954Z,95909.65
2019-04-21T04:27:33.672Z,95904.68
2019-04-21T04:40:32.475Z,95901.36
2019-04-21T04:43:09.839Z,95898.53
2019-04-21T04:48:09.200Z,95894.27
2019-04-21T04:50:45.485Z,95888.70
2019-04-21T04:55:41.099Z,95887.38
2019-04-21T04:58:07.136Z,95896.36
2019-04-21T05:03:11.757Z,95891.54
2019-04-21T05:06:38.306Z,95889.75
2019-04-21T05:11:30.736Z,95882.41
2019-04-21T05:13:55.386Z,95886.75
2019-04-21T05:16:38.445Z,95887.22
2019-04-21T05:21:30.197Z,95881.23
2019-04-21T05:23:44.084Z,95878.25
2019-04-21T05:26:09.981Z,95874.52
2019-04-21T05:28:41.928Z,95875.41
2019-04-21T05:31:45.002Z,95865.76
2019-04-21T05:34:09.482Z,95875.25
2019-04-21T05:37:04.055Z,95875.71
2019-04-21T05:39:37.765Z,95872.91
2019-04-21T05:42:02.644Z,95876.59
2019-04-21T05:44:58.200Z,95871.37
2019-04-21T05:47:29.895Z,95876.91
2019-04-21T05:49:57.194Z,95873.26
2019-04-21T05:52:26.569Z,95869.64
2019-04-21T05:55:01.169Z,95874.70
2019-04-21T05:57:33.549Z,95882.53
2019-04-21T06:00:04.291Z,95876.55
2019-04-21T06:02:35.441Z,95874.39
2019-04-21T06:07:41.065Z,95870.83
2019-04-21T06:10:05.466Z,95875.25
2019-04-21T06:12:44.975Z,95874.73
2019-04-21T06:15:15.327Z,95876.22
2019-04-21T06:17:43.964Z,95872.98
2019-04-21T06:20:17.149Z,95872.30
2019-04-21T06:22:46.757Z,95867.23
2019-04-21T06:25:43.110Z,95872.34
2019-04-21T06:27:45.813Z,95864.58
2019-04-21T06:30:19.335Z,95870.53
2019-04-21T06:32:49.054Z,95867.88
2019-04-21T06:35:48.941Z,95866.95
2019-04-21T06:38:13.130Z,95862.36
2019-04-21T06:40:42.275Z,95861.27
2019-04-21T06:45:50.056Z,95861.59
2019-04-21T06:48:20.765Z,95863.55
2019-04-21T06:50:46.102Z,95858.78
2019-04-21T06:53:23.766Z,95858.03
2019-04-21T06:55:46.761Z,95860.78
2019-04-21T06:58:18.146Z,95860.56
2019-04-21T07:00:45.297Z,95853.16
2019-04-21T07:03:22.971Z,95849.61
2019-04-21T07:06:00.292Z,95849.77
2019-04-21T07:08:30.810Z,95845.48
2019-04-21T07:10:53.339Z,95845.81
2019-04-21T07:13:22.249Z,95844.09
2019-04-21T07:16:00.586Z,95845.53
2019-04-21T07:18:27.299Z,95839.47
2019-04-21T07:20:53.512Z,95836.41
2019-04-21T07:23:30.293Z,95835.71
2019-04-21T07:25:58.152Z,95831.88
2019-04-21T07:28:32.048Z,95830.26
2019-04-21T07:31:04.993Z,95832.19
2019-04-21T07:33:50.878Z,95828.42
2019-04-21T07:36:06.514Z,95834.11
2019-04-21T07:38:33.184Z,95828.70
2019-04-21T07:40:57.920Z,95826.27
2019-04-21T07:43:31.530Z,95825.35
2019-04-21T07:45:58.598Z,95817.77
2019-04-21T07:48:43.246Z,95821.97
2019-04-21T07:51:33.949Z,95821.97
2019-04-21T07:54:13.836Z,95822.66
2019-04-21T07:56:19.923Z,95818.22
2019-04-21T07:59:02.078Z,95828.91
2019-04-21T08:01:37.343Z,95832.20
2019-04-21T08:04:14.675Z,95826.12
2019-04-21T08:09:08.974Z,95818.30
2019-04-21T08:11:36.670Z,95823.68
2019-04-21T08:14:08.175Z,95818.81
2019-04-21T08:16:49.763Z,95818.13
2019-04-21T08:19:13.315Z,95823.47
2019-04-21T08:21:46.234Z,95809.08
2019-04-21T08:24:14.941Z,95815.41
2019-04-21T08:26:45.165Z,95806.46
2019-04-21T08:34:22.599Z,95807.34
2019-04-21T08:36:46.494Z,95803.97
2019-04-21T08:39:26.824Z,95800.39
2019-04-21T08:41:49.672Z,95793.92
2019-04-21T08:44:26.230Z,95792.08
2019-04-21T08:46:55.383Z,95794.52
2019-04-21T08:49:22.291Z,95789.20
2019-04-21T08:52:00.740Z,95787.45
2019-04-21T08:54:26.525Z,95784.91
2019-04-21T08:57:14.639Z,95784.86
2019-04-21T09:00:12.549Z,95777.86
2019-04-21T09:02:58.873Z,95774.68
2019-04-21T09:05:23.522Z,95770.31
2019-04-21T09:08:02.146Z,95768.27
2019-04-21T09:10:31.736Z,95773.23
2019-04-21T09:12:53.487Z,95763.79
2019-04-21T09:15:31.380Z,95764.24
2019-04-21T09:17:53.389Z,95758.56
2019-04-21T09:20:32.722Z,95759.25
2019-04-21T09:23:00.734Z,95760.03
2019-04-21T09:25:44.682Z,95751.23
2019-04-21T09:28:03.957Z,95750.88
2019-04-21T09:30:17.541Z,95742.63
2019-04-21T09:32:49.469Z,95736.97
2019-04-21T09:35:20.056Z,95739.64
2019-04-21T09:37:56.471Z,95730.67
2019-04-21T09:40:27.354Z,95731.48
2019-04-21T09:42:58.647Z,95734.20
2019-04-21T09:45:23.025Z,95733.18
2019-04-21T09:48:00.852Z,95733.98
2019-04-21T09:50:24.343Z,95738.61
2019-04-21T09:52:59.700Z,95729.95
2019-04-21T09:55:31.495Z,95726.08
2019-04-21T09:58:07.503Z,95728.16
2019-04-21T10:00:31.247Z,95716.58
2019-04-21T10:03:06.069Z,95718.53
2019-04-21T10:05:29.980Z,95709.05
2019-04-21T10:07:59.792Z,95703.35
2019-04-21T10:10:31.829Z,95707.88
2019-04-21T10:13:02.757Z,95701.63
2019-04-21T10:15:33.247Z,95702.80
2019-04-21T10:18:06.373Z,95702.99
2019-04-21T10:20:36.350Z,95701.00
2019-04-21T10:23:07.068Z,95690.12
2019-04-21T10:25:36.784Z,95689.59
2019-04-21T10:28:07.380Z,95687.84
2019-04-21T10:30:36.697Z,95685.63
2019-04-21T10:33:06.181Z,95683.81
2019-04-21T10:35:37.015Z,95671.66
2019-04-21T10:38:16.989Z,95666.57
2019-04-21T10:40:37.524Z,95666.44
2019-04-21T10:43:10.078Z,95660.89
2019-04-21T10:45:39.021Z,95670.28
2019-04-21T10:48:08.441Z,95671.01
2019-04-21T10:50:38.873Z,95663.66
2019-04-21T10:53:13.391Z,95658.11
2019-04-21T10:55:57.876Z,95653.57
2019-04-21T10:58:22.958Z,95654.03
2019-04-21T11:01:00.053Z,95647.66
2019-04-21T11:03:36.980Z,95657.05
2019-04-21T11:06:08.626Z,95651.23
2019-04-21T11:08:43.355Z,95650.17
2019-04-21T11:11:10.014Z,95643.98
2019-04-21T11:13:40.815Z,95643.68
2019-04-21T11:16:11.032Z,95644.50
2019-04-21T11:18:41.961Z,95639.84
2019-04-21T11:21:11.641Z,95637.26
2019-04-21T11:23:40.823Z,95635.25
2019-04-21T11:26:10.095Z,95628.00
2019-04-21T11:28:39.272Z,95630.45
2019-04-21T11:31:09.100Z,95624.13
2019-04-21T11:33:39.568Z,95628.56
2019-04-21T11:36:09.318Z,95621.19
2019-04-21T11:39:06.079Z,95614.11
2019-04-21T11:41:23.926Z,95621.32
2019-04-21T11:43:53.217Z,95618.34
2019-04-21T11:46:22.663Z,95625.09
2019-04-21T11:48:52.499Z,95615.20
2019-04-21T11:51:22.773Z,95608.75
2019-04-21T11:53:52.866Z,95609.28
2019-04-21T11:56:23.052Z,95609.09
2019-04-21T11:58:52.434Z,95605.95
2019-04-21T12:01:21.592Z,95611.11
2019-04-21T12:03:51.736Z,95610.14
2019-04-21T12:06:30.878Z,95607.77
2019-04-21T12:08:54.482Z,95601.02
2019-04-21T12:11:23.273Z,95597.88
2019-04-21T12:13:52.485Z,95593.71
2019-04-21T12:16:23.246Z,95587.30
2019-04-21T12:18:52.598Z,95591.43
2019-04-21T12:21:23.308Z,95591.62
2019-04-21T12:23:52.760Z,95588.16
2019-04-21T12:26:22.173Z,95588.42
2019-04-21T12:28:53.434Z,95588.84
2019-04-21T12:31:51.695Z,95581.67
2019-04-21T12:34:21.866Z,95580.31
2019-04-21T12:36:52.720Z,95587.72
2019-04-21T12:39:23.023Z,95574.62
2019-04-21T12:41:52.257Z,95576.20
2019-04-21T12:44:22.578Z,95570.20
2019-04-21T12:46:51.985Z,95571.03
2019-04-21T12:49:22.098Z,95561.59
2019-04-21T12:51:51.591Z,95569.58
2019-04-21T12:54:21.657Z,95561.14
2019-04-21T12:56:51.725Z,95553.06
2019-04-21T12:59:21.351Z,95545.99
2019-04-21T13:04:26.018Z,95542.82
2019-04-21T13:06:55.306Z,95544.06
2019-04-21T13:09:27.501Z,95535.88
2019-04-21T13:11:56.967Z,95539.84
2019-04-21T13:14:26.407Z,95521.35
2019-04-21T13:16:57.332Z,95526.35
2019-04-21T13:19:27.325Z,95529.83
2019-04-21T13:21:58.177Z,95531.41
2019-04-21T13:24:27.484Z,95525.35
2019-04-21T13:26:59.791Z,95509.02
2019-04-21T13:29:28.221Z,95514.27
2019-04-21T13:31:58.415Z,95509.17
2019-04-21T13:34:28.332Z,95508.67
2019-04-21T13:36:59.257Z,95498.69
2019-04-21T13:40:18.207Z,95499.01
2019-04-21T13:42:34.282Z,95497.00
2019-04-21T13:44:57.929Z,95485.83
2019-04-21T13:47:28.238Z,95481.15
2019-04-21T13:49:59.889Z,95477.09
2019-04-21T13:52:29.051Z,95481.20
2019-04-21T13:54:58.617Z,95469.88
2019-04-21T13:57:28.518Z,95468.66
2019-04-21T13:59:59.230Z,95464.70
2019-04-21T14:02:29.020Z,95459.52
2019-04-21T14:04:59.171Z,95457.38
2019-04-21T14:07:28.422Z,95451.17
2019-04-21T14:10:03.369Z,95442.49
2019-04-21T14:12:29.656Z,95445.28
2019-04-21T14:15:00.106Z,95444.23
2019-04-21T14:17:30.856Z,95439.23
2019-04-21T14:20:01.441Z,95445.64
2019-04-21T14:22:31.794Z,95433.16
2019-04-21T14:25:01.817Z,95436.51
2019-04-21T14:27:32.184Z,95435.64
2019-04-21T14:30:02.898Z,95427.55
2019-04-21T14:32:32.199Z,95428.36
2019-04-21T14:35:02.973Z,95433.66
2019-04-21T14:37:32.887Z,95429.48
2019-04-21T14:40:07.408Z,95430.05
2019-04-21T14:42:34.014Z,95421.16
2019-04-21T14:45:03.284Z,95425.32
2019-04-21T14:48:00.930Z,95421.63
2019-04-21T14:51:07.320Z,95411.52
2019-04-21T14:53:46.177Z,95412.33
2019-04-21T14:56:15.450Z,95408.09
2019-04-21T14:58:45.303Z,95410.19
2019-04-21T15:01:15.740Z,95404.86
2019-04-21T15:03:45.687Z,95399.95
2019-04-21T15:06:15.719Z,95402.68
2019-04-21T15:08:45.063Z,95405.48
2019-04-21T15:11:14.248Z,95397.30
2019-04-21T15:13:43.976Z,95399.55
2019-04-21T15:16:13.176Z,95396.72
2019-04-21T15:18:42.650Z,95397.53
2019-04-21T15:21:13.120Z,95393.02
2019-04-21T15:23:42.771Z,95393.97
2019-04-21T15:26:12.377Z,95387.79
2019-04-21T15:28:42.496Z,95388.81
2019-04-21T15:31:19.647Z,95392.42
2019-04-21T15:33:43.210Z,95392.28
2019-04-21T15:36:13.369Z,95384.74
2019-04-21T15:38:43.674Z,95380.80
2019-04-21T15:41:14.372Z,95376.98
2019-04-21T15:43:44.752Z,95379.52
2019-04-21T15:46:15.059Z,95378.89
2019-04-21T15:48:44.805Z,95372.27
2019-04-21T15:51:15.742Z,95372.41
2019-04-21T15:53:45.820Z,95370.64
2019-04-21T15:56:20.662Z,95368.88
2019-04-21T15:59:08.456Z,95364.67
2019-04-21T16:01:46.492Z,95363.70
2019-04-21T16:04:16.838Z,95363.92
2019-04-21T16:06:46.053Z,95364.96
2019-04-21T16:09:20.973Z,95360.91
2019-04-21T16:11:46.650Z,95354.34
2019-04-21T16:14:16.701Z,95358.39
2019-04-21T16:16:47.420Z,95356.64
2019-04-21T16:19:16.774Z,95355.02
2019-04-21T16:21:46.525Z,95354.65
2019-04-21T16:24:16.338Z,95351.58
2019-04-21T16:26:46.838Z,95347.03
2019-04-21T16:29:17.402Z,95348.95
2019-04-21T16:31:47.026Z,95349.77
2019-04-21T16:34:17.765Z,95348.19
2019-04-21T16:36:47.661Z,95341.95
2019-04-21T16:39:18.129Z,95337.17
2019-04-21T16:41:47.309Z,95337.17
2019-04-21T16:44:16.918Z,95342.45
2019-04-21T16:46:47.431Z,95337.33
2019-04-21T16:49:17.891Z,95345.91
2019-04-21T16:51:50.018Z,95333.23
2019-04-21T16:54:26.431Z,95341.99
2019-04-21T16:57:33.561Z,95337.14
2019-04-21T17:00:06.635Z,95338.20
2019-04-21T17:02:36.705Z,95330.36
2019-04-21T17:05:06.723Z,95329.64
2019-04-21T17:07:36.778Z,95331.86
2019-04-21T17:10:06.621Z,95325.61
2019-04-21T17:12:37.399Z,95335.08
2019-04-21T17:15:18.974Z,95336.16
2019-04-21T17:18:00.416Z,95333.17
2019-04-21T17:20:19.259Z,95334.66
2019-04-21T17:22:41.752Z,95328.28
2019-04-21T17:25:11.421Z,95329.14
2019-04-21T17:27:40.950Z,95329.05
2019-04-21T17:30:12.508Z,95332.39
2019-04-21T17:32:46.989Z,95332.53
2019-04-21T17:35:14.181Z,95335.48
2019-04-21T17:37:43.574Z,95335.19
2019-04-21T17:40:13.563Z,95334.17
2019-04-21T17:42:49.278Z,95332.39
2019-04-21T17:45:15.176Z,95335.83
2019-04-21T17:47:53.769Z,95330.87
2019-04-21T17:50:29.449Z,95329.77
2019-04-21T17:53:08.745Z,95327.90
2019-04-21T17:55:38.524Z,95328.28
2019-04-21T17:58:21.955Z,95327.02
2019-04-21T18:01:10.983Z,95331.56
2019-04-21T18:03:40.717Z,95333.58
2019-04-21T18:05:55.887Z,95335.52
2019-04-21T18:08:30.595Z,95332.02
2019-04-21T18:10:54.357Z,95330.35
2019-04-21T18:13:19.212Z,95337.32
2019-04-21T18:15:58.608Z,95340.64
2019-04-21T18:18:18.627Z,95342.02
2019-04-21T18:20:55.006Z,95340.61
2019-04-21T18:23:52.871Z,95339.25
2019-04-21T18:26:24.738Z,95333.76
2019-04-21T18:28:46.480Z,95343.84
2019-04-21T18:31:16.519Z,95336.31
2019-04-21T18:34:12.765Z,95346.48
2019-04-21T18:36:49.733Z,95345.10
2019-04-21T18:39:39.250Z,95348.61
2019-04-21T18:42:17.477Z,95347.62
2019-04-21T18:45:28.467Z,95350.38
2019-04-21T18:47:48.912Z,95352.86
2019-04-21T18:50:24.126Z,95352.00
2019-04-21T18:53:08.865Z,95355.83
2019-04-21T18:55:36.050Z,95359.45
2019-04-21T18:58:01.016Z,95367.10
2019-04-21T19:00:34.445Z,95368.00
2019-04-21T19:03:02.033Z,95360.48
2019-04-21T19:05:32.287Z,95367.34
2019-04-21T19:08:14.795Z,95362.48
2019-04-21T19:10:50.639Z,95365.59
2019-04-21T19:13:49.462Z,95362.45
2019-04-21T19:16:11.072Z,95355.94
2019-04-21T19:20:54.289Z,95354.31
2019-04-21T19:23:33.825Z,95354.06
2019-04-21T19:26:11.028Z,95350.81
2019-04-21T19:28:29.020Z,95352.87
2019-04-21T19:31:07.698Z,95350.83
2019-04-21T19:33:25.429Z,95351.91
2019-04-21T19:35:43.473Z,95356.36
2019-04-21T19:38:16.207Z,95354.22
2019-04-21T19:40:56.552Z,95350.16
2019-04-21T19:43:36.977Z,95351.18
2019-04-21T19:45:59.463Z,95345.28
2019-04-21T19:48:36.786Z,95348.30
2019-04-21T19:51:07.164Z,95338.84
2019-04-21T19:53:29.871Z,95340.58
2019-04-21T19:55:50.057Z,95337.81
2019-04-21T19:58:26.375Z,95334.64
2019-04-21T20:00:53.675Z,95336.11
2019-04-21T20:03:21.783Z,95334.83
2019-04-21T20:06:00.373Z,95335.36
2019-04-21T20:08:36.733Z,95328.97
2019-04-21T20:11:10.628Z,95333.72
2019-04-21T20:13:53.142Z,95332.74
2019-04-21T20:16:12.856Z,95330.41
2019-04-21T20:18:34.886Z,95335.67
2019-04-21T20:20:58.356Z,95325.19
2019-04-21T20:23:31.938Z,95330.97
2019-04-21T20:26:02.723Z,95327.66
2019-04-21T20:28:44.396Z,95324.73
2019-04-21T20:31:20.532Z,95321.95
2019-04-21T20:33:52.611Z,95319.16
2019-04-21T20:36:21.075Z,95323.30
2019-04-21T20:38:42.128Z,95313.11
2019-04-21T20:41:22.268Z,95314.77
2019-04-21T20:43:55.652Z,95315.59
2019-04-21T20:46:24.935Z,95313.82
2019-04-21T20:48:51.260Z,95312.87
2019-04-21T20:51:29.922Z,95308.36
2019-04-21T20:53:53.742Z,95309.70
2019-04-21T20:56:19.349Z,95310.02
2019-04-21T20:58:58.122Z,95306.92
2019-04-21T21:03:57.979Z,95300.55
2019-04-21T21:06:26.064Z,95298.11
2019-04-21T21:09:01.469Z,95300.77
2019-04-21T21:11:29.353Z,95294.84
2019-04-21T21:14:07.416Z,95298.19
2019-04-21T21:16:42.693Z,95292.94
2019-04-21T21:21:35.901Z,95288.50
2019-04-21T21:24:10.155Z,95293.00
2019-04-21T21:26:36.934Z,95283.98
2019-04-21T21:29:02.964Z,95286.14
2019-04-21T21:31:41.757Z,95284.54
2019-04-21T21:34:16.772Z,95286.09
2019-04-21T21:36:43.505Z,95290.89
2019-04-21T21:39:15.507Z,95290.89
2019-04-21T21:41:36.873Z,95284.53
2019-04-21T21:44:05.798Z,95284.53
2019-04-21T21:46:44.190Z,95279.94
2019-04-21T21:49:06.310Z,95275.82
2019-04-21T21:51:42.881Z,95275.82
2019-04-21T21:54:04.799Z,95262.65
2019-04-21T21:56:34.448Z,95262.65
2019-04-21T21:59:11.764Z,95263.15
2019-04-21T22:01:39.908Z,95270.20
2019-04-21T22:04:14.552Z,95262.64
2019-04-21T22:06:45.436Z,95259.34
2019-04-21T22:09:12.531Z,95256.57
2019-04-21T22:11:42.335Z,95253.30
2019-04-21T22:14:22.311Z,95250.01
2019-04-21T22:16:59.358Z,95244.63
2019-04-21T22:19:33.035Z,95239.70
2019-04-21T22:22:07.965Z,95235.30
2019-04-21T22:24:33.478Z,95243.17
2019-04-21T22:26:47.271Z,95238.42
2019-04-21T22:29:16.643Z,95236.16
2019-04-21T22:31:46.921Z,95239.45
2019-04-21T22:34:21.820Z,95248.47
2019-04-21T22:36:59.061Z,95242.75
2019-04-21T22:39:37.540Z,95244.56
2019-04-21T22:42:04.178Z,95242.09
2019-04-21T22:44:22.708Z,95241.45
2019-04-21T22:47:02.963Z,95239.00
2019-04-21T22:49:23.816Z,95247.05
2019-04-21T22:51:53.895Z,95242.60
2019-04-21T22:54:31.478Z,95240.16
2019-04-21T22:57:02.630Z,95237.87
2019-04-21T22:59:28.124Z,95237.69
2019-04-21T23:01:57.609Z,95242.12
2019-04-21T23:04:35.664Z,95242.59
2019-04-21T23:07:02.873Z,95239.48
2019-04-21T23:09:29.122Z,95249.80
2019-04-21T23:12:01.003Z,95246.67
2019-04-21T23:14:32.872Z,95239.80
2019-04-21T23:17:25.588Z,95236.02
2019-04-21T23:19:44.895Z,95235.84
2019-04-21T23:22:24.494Z,95238.16
2019-04-21T23:24:51.592Z,95236.67
2019-04-21T23:27:16.574Z,95236.19
2019-04-21T23:30:09.974Z,95236.34
2019-04-21T23:32:17.383Z,95230.27
2019-04-21T23:34:40.301Z,95226.50
2019-04-21T23:37:14.555Z,95227.02
2019-04-21T23:39:41.459Z,95222.43
2019-04-21T23:42:11.228Z,95222.73
2019-04-21T23:44:47.020Z,95219.95
2019-04-21T23:47:20.008Z,95215.37
2019-04-21T23:49:50.976Z,95212.57
2019-04-21T23:52:16.049Z,95210.30
2019-04-21T23:54:45.264Z,95214.02
2019-04-21T23:57:23.433Z,95212.05
2019-04-21T23:59:51.332Z,95204.67
